sensor_id;sensor_type;location;lat;lon;timestamp;temperature;humidity
63960;DHT22;50136;51.374;0.096;2023-02-11T00:07:39;8.40;99.90
63960;DHT22;50136;51.374;0.096;2023-02-11T00:17:42;8.40;99.90
63960;DHT22;50136;51.374;0.096;2023-02-11T00:27:44;8.50;99.90
63960;DHT22;50136;51.374;0.096;2023-02-11T00:37:47;8.60;99.90
63960;DHT22;50136;51.374;0.096;2023-02-11T00:47:49;8.60;99.90
63960;DHT22;50136;51.374;0.096;2023-02-11T00:57:53;8.60;99.90
63960;DHT22;50136;51.374;0.096;2023-02-11T01:07:55;8.60;99.90
63960;DHT22;50136;51.374;0.096;2023-02-11T01:17:58;8.60;99.90
63960;DHT22;50136;51.374;0.096;2023-02-11T01:28:00;8.50;99.90
63960;DHT22;50136;51.374;0.096;2023-02-11T01:38:03;8.50;99.90
63960;DHT22;50136;51.374;0.096;2023-02-11T01:48:06;8.50;99.90
63960;DHT22;50136;51.374;0.096;2023-02-11T01:58:09;8.50;99.90
63960;DHT22;50136;51.374;0.096;2023-02-11T02:08:16;8.50;99.90
63960;DHT22;50136;51.374;0.096;2023-02-11T02:18:34;8.50;99.90
63960;DHT22;50136;51.374;0.096;2023-02-11T02:39:10;8.50;99.90
63960;DHT22;50136;51.374;0.096;2023-02-11T02:49:15;8.60;99.90
63960;DHT22;50136;51.374;0.096;2023-02-11T02:59:26;8.60;99.90
63960;DHT22;50136;51.374;0.096;2023-02-11T03:09:33;8.60;99.90
63960;DHT22;50136;51.374;0.096;2023-02-11T03:19:42;8.60;99.90
63960;DHT22;50136;51.374;0.096;2023-02-11T03:29:50;8.60;99.90
63960;DHT22;50136;51.374;0.096;2023-02-11T03:39:58;8.60;99.90
63960;DHT22;50136;51.374;0.096;2023-02-11T03:50:02;8.60;99.90
63960;DHT22;50136;51.374;0.096;2023-02-11T04:00:08;8.50;99.90
63960;DHT22;50136;51.374;0.096;2023-02-11T04:10:11;8.40;99.90
63960;DHT22;50136;51.374;0.096;2023-02-11T04:20:14;8.20;99.90
63960;DHT22;50136;51.374;0.096;2023-02-11T04:30:17;8.20;99.90
63960;DHT22;50136;51.374;0.096;2023-02-11T04:40:20;8.10;99.90
63960;DHT22;50136;51.374;0.096;2023-02-11T04:50:22;8.10;99.90
63960;DHT22;50136;51.374;0.096;2023-02-11T05:00:25;8.10;99.90
63960;DHT22;50136;51.374;0.096;2023-02-11T05:10:27;8.20;99.90
63960;DHT22;50136;51.374;0.096;2023-02-11T05:20:30;8.20;99.90
63960;DHT22;50136;51.374;0.096;2023-02-11T05:30:32;8.40;99.90
63960;DHT22;50136;51.374;0.096;2023-02-11T05:40:36;8.40;99.90
63960;DHT22;50136;51.374;0.096;2023-02-11T05:50:38;8.40;99.90
63960;DHT22;50136;51.374;0.096;2023-02-11T06:00:41;8.40;99.90
63960;DHT22;50136;51.374;0.096;2023-02-11T06:10:44;8.40;99.90
63960;DHT22;50136;51.374;0.096;2023-02-11T06:20:47;8.40;99.90
63960;DHT22;50136;51.374;0.096;2023-02-11T06:30:49;8.50;99.90
63960;DHT22;50136;51.374;0.096;2023-02-11T06:40:53;8.50;99.90
63960;DHT22;50136;51.374;0.096;2023-02-11T06:50:55;8.50;99.90
63960;DHT22;50136;51.374;0.096;2023-02-11T07:00:58;8.50;99.90
63960;DHT22;50136;51.374;0.096;2023-02-11T07:11:00;8.60;99.90
63960;DHT22;50136;51.374;0.096;2023-02-11T07:21:05;8.60;99.90
63960;DHT22;50136;51.374;0.096;2023-02-11T07:31:08;8.70;99.90
63960;DHT22;50136;51.374;0.096;2023-02-11T07:41:14;8.60;99.90
63960;DHT22;50136;51.374;0.096;2023-02-11T07:51:18;8.60;99.90
63960;DHT22;50136;51.374;0.096;2023-02-11T08:01:23;8.60;99.90
63960;DHT22;50136;51.374;0.096;2023-02-11T08:11:27;8.70;99.90
63960;DHT22;50136;51.374;0.096;2023-02-11T08:21:31;8.80;99.90
63960;DHT22;50136;51.374;0.096;2023-02-11T08:31:35;8.90;99.90
63960;DHT22;50136;51.374;0.096;2023-02-11T08:41:39;9.10;99.90
63960;DHT22;50136;51.374;0.096;2023-02-11T08:51:42;9.20;99.90
63960;DHT22;50136;51.374;0.096;2023-02-11T09:01:45;9.30;99.90
63960;DHT22;50136;51.374;0.096;2023-02-11T09:11:47;9.50;99.90
63960;DHT22;50136;51.374;0.096;2023-02-11T09:21:51;9.60;99.90
63960;DHT22;50136;51.374;0.096;2023-02-11T09:31:53;9.60;99.90
63960;DHT22;50136;51.374;0.096;2023-02-11T09:42:23;9.80;99.90
63960;DHT22;50136;51.374;0.096;2023-02-11T09:52:38;9.90;99.90
63960;DHT22;50136;51.374;0.096;2023-02-11T10:02:55;10.00;99.90
63960;DHT22;50136;51.374;0.096;2023-02-11T10:13:19;10.00;99.90
63960;DHT22;50136;51.374;0.096;2023-02-11T10:23:29;10.20;99.90
63960;DHT22;50136;51.374;0.096;2023-02-11T10:33:38;10.20;99.90
63960;DHT22;50136;51.374;0.096;2023-02-11T10:43:44;10.30;99.90
63960;DHT22;50136;51.374;0.096;2023-02-11T10:53:47;10.30;99.90
63960;DHT22;50136;51.374;0.096;2023-02-11T11:03:51;10.50;99.90
63960;DHT22;50136;51.374;0.096;2023-02-11T11:13:56;10.50;99.90
63960;DHT22;50136;51.374;0.096;2023-02-11T11:24:01;10.50;99.90
63960;DHT22;50136;51.374;0.096;2023-02-11T11:34:20;10.50;99.90
63960;DHT22;50136;51.374;0.096;2023-02-11T11:44:26;10.70;99.90
63960;DHT22;50136;51.374;0.096;2023-02-11T11:54:30;10.90;99.90
63960;DHT22;50136;51.374;0.096;2023-02-11T12:04:53;11.00;99.90
63960;DHT22;50136;51.374;0.096;2023-02-11T12:15:10;10.90;99.90
63960;DHT22;50136;51.374;0.096;2023-02-11T12:25:25;10.90;99.90
63960;DHT22;50136;51.374;0.096;2023-02-11T12:35:33;11.00;99.90
63960;DHT22;50136;51.374;0.096;2023-02-11T12:45:51;11.10;99.90
63960;DHT22;50136;51.374;0.096;2023-02-11T12:55:58;11.10;99.90
63960;DHT22;50136;51.374;0.096;2023-02-11T13:06:06;11.10;99.90
63960;DHT22;50136;51.374;0.096;2023-02-11T13:16:17;11.10;99.90
63960;DHT22;50136;51.374;0.096;2023-02-11T13:26:26;11.20;99.90
63960;DHT22;50136;51.374;0.096;2023-02-11T13:36:30;11.30;99.90
63960;DHT22;50136;51.374;0.096;2023-02-11T13:46:52;11.40;99.90
63960;DHT22;50136;51.374;0.096;2023-02-11T13:57:28;11.20;99.90
63960;DHT22;50136;51.374;0.096;2023-02-11T14:07:32;11.20;99.90
63960;DHT22;50136;51.374;0.096;2023-02-11T14:17:34;11.20;99.90
63960;DHT22;50136;51.374;0.096;2023-02-11T14:27:43;11.10;99.90
63960;DHT22;50136;51.374;0.096;2023-02-11T14:37:52;11.10;99.90
63960;DHT22;50136;51.374;0.096;2023-02-11T14:48:04;11.00;99.90
63960;DHT22;50136;51.374;0.096;2023-02-11T14:58:12;10.90;99.90
63960;DHT22;50136;51.374;0.096;2023-02-11T15:08:16;10.90;99.90
63960;DHT22;50136;51.374;0.096;2023-02-11T15:18:20;10.90;99.90
63960;DHT22;50136;51.374;0.096;2023-02-11T15:39:35;10.70;99.90
63960;DHT22;50136;51.374;0.096;2023-02-11T15:49:37;10.60;99.90
63960;DHT22;50136;51.374;0.096;2023-02-11T15:59:46;10.60;99.90
63960;DHT22;50136;51.374;0.096;2023-02-11T16:09:56;10.60;99.90
63960;DHT22;50136;51.374;0.096;2023-02-11T16:20:00;10.50;99.90
63960;DHT22;50136;51.374;0.096;2023-02-11T16:31:09;10.40;99.90
63960;DHT22;50136;51.374;0.096;2023-02-11T16:40:56;10.30;99.90
63960;DHT22;50136;51.374;0.096;2023-02-11T16:50:58;10.30;99.90
63960;DHT22;50136;51.374;0.096;2023-02-11T17:01:01;10.30;99.90
63960;DHT22;50136;51.374;0.096;2023-02-11T17:11:04;10.20;99.90
63960;DHT22;50136;51.374;0.096;2023-02-11T17:21:07;10.10;99.90
63960;DHT22;50136;51.374;0.096;2023-02-11T17:31:09;10.10;99.90
63960;DHT22;50136;51.374;0.096;2023-02-11T17:41:13;10.00;99.90
63960;DHT22;50136;51.374;0.096;2023-02-11T17:51:21;9.90;99.90
63960;DHT22;50136;51.374;0.096;2023-02-11T18:01:27;9.80;99.90
63960;DHT22;50136;51.374;0.096;2023-02-11T18:11:30;9.90;99.90
63960;DHT22;50136;51.374;0.096;2023-02-11T18:21:34;9.80;99.90
63960;DHT22;50136;51.374;0.096;2023-02-11T18:31:36;9.80;99.90
63960;DHT22;50136;51.374;0.096;2023-02-11T18:41:40;9.80;99.90
63960;DHT22;50136;51.374;0.096;2023-02-11T18:51:42;9.80;99.90
63960;DHT22;50136;51.374;0.096;2023-02-11T19:01:45;9.80;99.90
63960;DHT22;50136;51.374;0.096;2023-02-11T19:11:47;9.80;99.90
63960;DHT22;50136;51.374;0.096;2023-02-11T19:21:50;9.80;99.90
63960;DHT22;50136;51.374;0.096;2023-02-11T19:52:28;9.70;99.90
63960;DHT22;50136;51.374;0.096;2023-02-11T20:12:48;9.60;99.90
63960;DHT22;50136;51.374;0.096;2023-02-11T20:22:50;9.50;99.90
63960;DHT22;50136;51.374;0.096;2023-02-11T20:32:53;9.50;99.90
63960;DHT22;50136;51.374;0.096;2023-02-11T20:42:55;9.40;99.90
63960;DHT22;50136;51.374;0.096;2023-02-11T20:52:59;9.40;99.90
63960;DHT22;50136;51.374;0.096;2023-02-11T21:03:01;9.50;99.90
63960;DHT22;50136;51.374;0.096;2023-02-11T21:13:04;9.40;99.90
63960;DHT22;50136;51.374;0.096;2023-02-11T21:23:06;9.50;99.90
63960;DHT22;50136;51.374;0.096;2023-02-11T21:33:10;9.40;99.90
63960;DHT22;50136;51.374;0.096;2023-02-11T21:43:32;9.40;99.90
63960;DHT22;50136;51.374;0.096;2023-02-11T21:53:36;9.40;99.90
63960;DHT22;50136;51.374;0.096;2023-02-11T22:03:38;9.40;99.90
63960;DHT22;50136;51.374;0.096;2023-02-11T22:13:41;9.40;99.90
63960;DHT22;50136;51.374;0.096;2023-02-11T22:34:48;9.30;99.90
63960;DHT22;50136;51.374;0.096;2023-02-11T22:44:53;9.20;99.90
63960;DHT22;50136;51.374;0.096;2023-02-11T22:54:56;9.10;99.90
63960;DHT22;50136;51.374;0.096;2023-02-11T23:04:58;9.00;99.90
63960;DHT22;50136;51.374;0.096;2023-02-11T23:15:02;9.00;99.90
63960;DHT22;50136;51.374;0.096;2023-02-11T23:25:06;9.00;99.90
63960;DHT22;50136;51.374;0.096;2023-02-11T23:35:09;9.00;99.90
63960;DHT22;50136;51.374;0.096;2023-02-11T23:56:27;8.90;99.90
